Time;durP1;ratioP1;P1;durP2;ratioP2;P2;SDS_P1;SDS_P2;PMS_P1;PMS_P2;Temp;Humidity;BMP_temperature;BMP_pressure;BME280_temperature;BME280_humidity;BME280_pressure;Samples;Min_cycle;Max_cycle;Signal;HPM_P1;HPM_P2
2022/06/02 07:06:08;;;;;;;13.70;12.50;;;;;;;;;;6292539;22;20023;-77
2022/06/02 07:08:37;;;;;;;15.05;13.63;;;;;;;;;;6277677;22;20091;-79
2022/06/02 07:14:21;;;;;;;14.35;12.88;;;;;;;;;;6276782;22;20022;-78
2022/06/02 07:16:55;;;;;;;14.50;13.00;;;;;;;;;;6277321;22;20015;-78
2022/06/02 07:19:42;;;;;;;13.07;11.77;;;;;;;;;;6276565;22;20007;-79
2022/06/02 07:22:35;;;;;;;13.57;12.27;;;;;;;;;;6249727;22;20004;-79
2022/06/02 07:25:16;;;;;;;13.77;12.38;;;;;;;;;;6249725;22;20011;-78
2022/06/02 07:27:50;;;;;;;14.20;12.98;;;;;;;;;;6276655;22;20012;-79
2022/06/02 07:30:52;;;;;;;13.27;11.95;;;;;;;;;;6277104;22;20000;-79
2022/06/02 07:33:32;;;;;;;13.35;11.95;;;;;;;;;;6276960;22;20495;-79
2022/06/02 07:36:12;;;;;;;13.65;12.32;;;;;;;;;;6277079;22;20031;-80
2022/06/02 07:39:29;;;;;;;13.40;12.10;;;;;;;;;;6276993;22;20004;-79
2022/06/02 07:42:20;;;;;;;12.80;11.52;;;;;;;;;;6276988;22;20010;-80
2022/06/02 07:44:54;;;;;;;13.48;12.07;;;;;;;;;;6276947;22;19999;-79
2022/06/02 07:47:47;;;;;;;13.35;12.05;;;;;;;;;;6276527;22;20007;-81
2022/06/02 07:50:35;;;;;;;12.05;10.50;;;;;;;;;;6276888;22;20007;-80
2022/06/02 10:38:26;;;;;;;23.08;20.73;;;;;;;;;;6252675;22;20043;-80
2022/06/02 10:41:17;;;;;;;20.58;17.15;;;;;;;;;;6308011;22;20007;-77
2022/06/02 10:44:04;;;;;;;17.23;15.32;;;;;;;;;;6298142;22;20007;-78
2022/06/02 10:47:09;;;;;;;18.65;16.38;;;;;;;;;;6276856;22;20011;-77
2022/06/02 10:49:59;;;;;;;18.85;16.65;;;;;;;;;;6277075;22;20431;-82
2022/06/02 10:52:36;;;;;;;15.05;13.10;;;;;;;;;;6277315;22;20006;-82
2022/06/02 10:55:32;;;;;;;21.27;17.23;;;;;;;;;;6277055;22;20004;-83
2022/06/02 10:58:39;;;;;;;19.30;14.52;;;;;;;;;;6277238;22;20052;-84
2022/06/02 11:01:07;;;;;;;18.75;15.90;;;;;;;;;;6276272;22;20008;-84
2022/06/02 11:04:00;;;;;;;24.38;21.55;;;;;;;;;;6276990;22;20317;-83
2022/06/02 11:06:47;;;;;;;23.02;19.73;;;;;;;;;;6277171;22;20043;-82
2022/06/02 11:09:42;;;;;;;16.65;15.05;;;;;;;;;;6277128;22;20004;-83
2022/06/02 11:12:31;;;;;;;21.60;16.58;;;;;;;;;;6269658;22;20035;-80
2022/06/02 11:15:00;;;;;;;23.77;21.23;;;;;;;;;;6277063;22;20053;-81
2022/06/02 11:17:38;;;;;;;21.08;18.85;;;;;;;;;;6246628;22;20366;-82
2022/06/02 11:20:33;;;;;;;22.58;20.17;;;;;;;;;;6277082;22;20015;-82
2022/06/02 11:23:36;;;;;;;24.85;20.15;;;;;;;;;;6244768;22;20007;-84
2022/06/02 11:26:13;;;;;;;33.65;30.15;;;;;;;;;;6268796;22;19996;-82
2022/06/02 11:28:53;;;;;;;29.45;24.48;;;;;;;;;;6278501;22;20004;-90
2022/06/02 11:31:56;;;;;;;34.85;30.55;;;;;;;;;;6277948;22;20003;-86
2022/06/02 11:34:47;;;;;;;36.40;30.33;;;;;;;;;;6277068;22;20004;-85
2022/06/02 11:37:27;;;;;;;39.17;33.33;;;;;;;;;;6207776;22;20012;-86
2022/06/02 11:40:41;;;;;;;36.58;32.67;;;;;;;;;;6276916;22;20004;-85
2022/06/02 11:43:14;;;;;;;32.25;28.95;;;;;;;;;;6261555;22;20014;-86
2022/06/02 11:46:05;;;;;;;34.08;28.55;;;;;;;;;;6277275;22;20000;-86
2022/06/02 11:48:48;;;;;;;29.75;26.55;;;;;;;;;;6220578;22;20015;-86
2022/06/02 11:51:27;;;;;;;33.47;29.85;;;;;;;;;;6276854;22;20004;-86
2022/06/02 11:54:03;;;;;;;32.42;27.98;;;;;;;;;;6277009;22;20003;-86
2022/06/02 11:56:44;;;;;;;24.10;21.17;;;;;;;;;;6276907;22;20007;-86
2022/06/02 11:59:27;;;;;;;24.48;21.88;;;;;;;;;;6278380;22;20000;-86
2022/06/02 12:02:47;;;;;;;19.98;16.98;;;;;;;;;;6246650;23;20062;-86
2022/06/02 12:05:36;;;;;;;33.63;27.58;;;;;;;;;;6272579;22;20090;-86
2022/06/02 12:08:33;;;;;;;30.15;24.85;;;;;;;;;;6246477;23;20019;-87
2022/06/02 12:11:12;;;;;;;37.92;30.77;;;;;;;;;;6246649;23;20431;-87
2022/06/02 12:13:52;;;;;;;;;;;;;;;;;;6278554;22;20012;-86
2022/06/02 12:16:36;;;;;;;32.22;28.73;;;;;;;;;;6282165;22;20273;-86
2022/06/02 12:19:46;;;;;;;32.55;28.88;;;;;;;;;;6280140;22;20042;-86
2022/06/02 12:22:30;;;;;;;40.33;30.92;;;;;;;;;;6185340;23;20354;-86
2022/06/02 12:25:04;;;;;;;26.33;23.30;;;;;;;;;;6263682;22;20003;-88
2022/06/02 12:27:58;;;;;;;31.40;27.55;;;;;;;;;;6281529;22;20043;-89
2022/06/02 12:30:45;;;;;;;30.92;27.63;;;;;;;;;;6268304;22;20014;-86
2022/06/02 12:33:24;;;;;;;25.90;21.98;;;;;;;;;;6278410;22;20012;-83
2022/06/02 12:36:02;;;;;;;29.63;25.83;;;;;;;;;;6278438;22;20077;-87
2022/06/02 12:38:46;;;;;;;21.58;17.98;;;;;;;;;;6278283;22;20065;-87
2022/06/02 12:41:11;;;;;;;20.98;17.65;;;;;;;;;;6278493;22;20029;-88
2022/06/02 12:43:45;;;;;;;22.00;18.60;;;;;;;;;;6279436;22;20012;-86
2022/06/02 12:46:30;;;;;;;21.95;19.60;;;;;;;;;;6279354;22;20006;-90
2022/06/02 12:49:20;;;;;;;17.02;15.05;;;;;;;;;;6247294;23;20370;-89
2022/06/02 12:52:05;;;;;;;20.17;18.05;;;;;;;;;;6267283;22;20019;-89
2022/06/02 12:55:04;;;;;;;18.65;16.65;;;;;;;;;;6278477;22;20008;-88
2022/06/02 12:57:54;;;;;;;19.65;15.43;;;;;;;;;;6249035;22;20011;-89
2022/06/02 13:00:38;;;;;;;17.77;14.75;;;;;;;;;;6247612;22;20012;-91
2022/06/02 13:03:39;;;;;;;18.45;14.88;;;;;;;;;;6279251;22;19996;-90
2022/06/02 13:07:01;;;;;;;17.55;15.02;;;;;;;;;;6279035;22;20141;-88
2022/06/02 13:09:42;;;;;;;16.63;14.88;;;;;;;;;;6154897;23;20025;-85
2022/06/02 13:12:25;;;;;;;17.27;15.45;;;;;;;;;;6159621;23;20016;-92
2022/06/02 13:15:30;;;;;;;18.40;16.55;;;;;;;;;;6250974;22;20075;-86
2022/06/02 13:18:26;;;;;;;17.77;15.48;;;;;;;;;;6278440;22;20015;-85
2022/06/02 13:21:00;;;;;;;15.00;13.50;;;;;;;;;;6278380;22;20026;-88
2022/06/02 13:24:07;;;;;;;20.08;14.50;;;;;;;;;;6281870;22;20067;-89
2022/06/02 13:27:03;;;;;;;15.70;14.07;;;;;;;;;;6241716;22;20011;-86
2022/06/02 13:29:59;;;;;;;16.67;13.63;;;;;;;;;;6281903;22;20007;-90
2022/06/02 13:32:28;;;;;;;16.27;13.50;;;;;;;;;;6283412;22;20392;-82
2022/06/02 13:35:21;;;;;;;28.73;14.55;;;;;;;;;;6278779;22;20023;-85
2022/06/02 13:37:55;;;;;;;14.88;11.57;;;;;;;;;;6277579;22;20007;-84
2022/06/02 13:40:54;;;;;;;14.18;11.65;;;;;;;;;;6277962;22;20077;-83
2022/06/02 13:43:59;;;;;;;13.57;12.20;;;;;;;;;;6277967;22;20308;-86
2022/06/02 13:46:39;;;;;;;15.18;11.65;;;;;;;;;;6278151;22;20027;-83
2022/06/02 13:49:27;;;;;;;17.75;13.82;;;;;;;;;;6276732;22;20067;-81
2022/06/02 13:52:08;;;;;;;13.55;12.15;;;;;;;;;;6254638;22;20439;-81
2022/06/02 13:58:15;;;;;;;14.23;11.05;;;;;;;;;;6277678;22;20137;-84
2022/06/02 14:01:04;;;;;;;12.27;10.38;;;;;;;;;;6277603;22;20011;-87
2022/06/02 14:03:38;;;;;;;13.85;11.88;;;;;;;;;;6277360;22;20000;-84
2022/06/02 14:06:13;;;;;;;14.13;12.82;;;;;;;;;;6278228;22;20438;-88
2022/06/02 14:09:23;;;;;;;13.05;11.70;;;;;;;;;;6278102;22;20082;-84
2022/06/02 14:11:55;;;;;;;11.50;10.32;;;;;;;;;;6153275;23;20004;-88
2022/06/02 14:14:23;;;;;;;13.60;11.43;;;;;;;;;;6273055;22;20014;-89
2022/06/02 14:17:01;;;;;;;14.68;12.93;;;;;;;;;;6279080;22;20004;-91
2022/06/02 14:20:16;;;;;;;14.68;13.25;;;;;;;;;;6280843;22;20004;-89
2022/06/02 14:23:00;;;;;;;13.45;12.02;;;;;;;;;;6259012;22;20007;-86
2022/06/02 14:25:40;;;;;;;12.77;11.50;;;;;;;;;;6286563;22;20000;-91
2022/06/02 14:28:09;;;;;;;11.00;10.00;;;;;;;;;;6254419;23;20061;-92
2022/06/02 14:30:47;;;;;;;11.60;10.43;;;;;;;;;;6281740;22;20049;-86
2022/06/02 14:33:31;;;;;;;9.98;8.82;;;;;;;;;;6278960;22;20047;-83
2022/06/02 14:35:56;;;;;;;10.20;9.20;;;;;;;;;;6246806;23;20007;-83
2022/06/02 14:38:46;;;;;;;12.00;8.95;;;;;;;;;;6247349;22;20016;-96
2022/06/02 14:41:27;;;;;;;12.32;11.10;;;;;;;;;;6248073;23;20004;-84
2022/06/02 14:44:10;;;;;;;12.68;10.35;;;;;;;;;;6267604;22;19999;-80
2022/06/02 14:47:06;;;;;;;10.98;9.88;;;;;;;;;;6277914;22;20326;-83
2022/06/02 14:49:50;;;;;;;10.48;9.32;;;;;;;;;;6277629;22;20004;-79
2022/06/02 14:52:21;;;;;;;10.40;8.98;;;;;;;;;;6278440;22;20022;-88
2022/06/02 14:54:49;;;;;;;10.93;9.80;;;;;;;;;;6279904;22;19999;-92
2022/06/02 14:57:42;;;;;;;10.60;9.50;;;;;;;;;;6279389;22;20004;-80
2022/06/02 15:00:29;;;;;;;12.27;9.90;;;;;;;;;;6245293;23;20004;-80
2022/06/02 15:03:13;;;;;;;11.25;9.95;;;;;;;;;;6267328;22;20335;-79
2022/06/02 15:05:53;;;;;;;17.52;10.73;;;;;;;;;;6277636;22;20000;-83
2022/06/02 15:08:24;;;;;;;9.63;8.63;;;;;;;;;;6279461;22;20075;-88
2022/06/02 15:11:09;;;;;;;10.65;9.70;;;;;;;;;;6278464;22;20450;-79
2022/06/02 15:16:30;;;;;;;11.15;10.02;;;;;;;;;;6275961;22;20382;-81
2022/06/02 15:19:21;;;;;;;10.50;9.50;;;;;;;;;;6277159;22;20008;-82
2022/06/02 15:22:24;;;;;;;10.13;9.18;;;;;;;;;;6275626;22;20078;-84
2022/06/02 15:25:27;;;;;;;11.73;10.07;;;;;;;;;;6245008;22;20008;-81
2022/06/02 15:28:17;;;;;;;10.98;9.88;;;;;;;;;;6266521;22;20008;-81
2022/06/02 15:31:01;;;;;;;13.20;11.93;;;;;;;;;;6277328;22;20004;-84
2022/06/02 15:33:45;;;;;;;10.38;9.38;;;;;;;;;;6278611;22;20452;-82
2022/06/02 15:36:41;;;;;;;11.30;10.07;;;;;;;;;;6279146;22;20074;-86
2022/06/02 15:39:28;;;;;;;12.77;9.32;;;;;;;;;;6279290;22;20443;-82
2022/06/02 15:42:38;;;;;;;10.70;9.73;;;;;;;;;;6279173;22;20027;-82
2022/06/02 15:45:22;;;;;;;10.27;9.27;;;;;;;;;;6246983;22;20007;-83
2022/06/02 20:20:26;;;;;;;15.68;14.15;;;;;;;;;;6272316;22;20054;-78
2022/06/02 20:23:04;;;;;;;16.52;14.82;;;;;;;;;;6276942;22;20015;-80
2022/06/02 20:25:41;;;;;;;16.60;14.97;;;;;;;;;;6282220;22;20007;-79
2022/06/02 20:28:14;;;;;;;15.20;13.63;;;;;;;;;;6286796;22;20000;-80
2022/06/02 20:31:03;;;;;;;18.60;16.75;;;;;;;;;;6278750;22;20017;-81
2022/06/02 20:33:43;;;;;;;14.25;12.85;;;;;;;;;;6278363;22;20007;-81
2022/06/02 20:36:21;;;;;;;15.40;13.90;;;;;;;;;;6278627;22;20411;-81
2022/06/02 20:38:55;;;;;;;14.55;13.10;;;;;;;;;;6278419;22;20010;-81
2022/06/02 20:41:34;;;;;;;14.90;13.60;;;;;;;;;;6278742;22;20000;-81
2022/06/02 20:44:27;;;;;;;16.70;14.13;;;;;;;;;;6278489;22;20004;-81
2022/06/02 20:47:07;;;;;;;15.95;14.35;;;;;;;;;;6278241;22;20008;-77
2022/06/02 20:49:53;;;;;;;16.17;14.70;;;;;;;;;;6278529;22;20010;-78
2022/06/02 20:52:50;;;;;;;15.60;14.00;;;;;;;;;;6278526;22;20008;-77
2022/06/02 20:55:18;;;;;;;15.23;13.82;;;;;;;;;;6278240;22;20358;-77
2022/06/02 20:58:02;;;;;;;13.98;12.68;;;;;;;;;;6278250;22;20058;-76
2022/06/02 21:00:58;;;;;;;14.98;13.35;;;;;;;;;;6278382;22;20010;-77
2022/06/02 21:03:57;;;;;;;14.27;12.98;;;;;;;;;;6259598;22;20011;-77
2022/06/02 21:06:32;;;;;;;15.68;14.27;;;;;;;;;;6278487;22;20014;-78
2022/06/02 21:09:03;;;;;;;16.45;13.88;;;;;;;;;;6278313;22;20007;-77
2022/06/02 21:11:37;;;;;;;15.63;13.82;;;;;;;;;;6251026;22;20000;-77
2022/06/02 21:14:03;;;;;;;14.80;13.30;;;;;;;;;;6277959;22;20327;-77
2022/06/02 21:16:40;;;;;;;16.20;13.73;;;;;;;;;;6278045;22;20000;-78
2022/06/02 21:19:20;;;;;;;15.40;13.65;;;;;;;;;;6278327;22;20003;-78
2022/06/02 21:21:55;;;;;;;;;;;;;;;;;;6278484;22;20065;-77
2022/06/02 21:24:23;;;;;;;14.48;13.00;;;;;;;;;;6278033;22;19907;-78
2022/06/02 21:27:26;;;;;;;13.88;12.57;;;;;;;;;;6278543;22;20086;-77
2022/06/02 21:29:55;;;;;;;14.10;12.55;;;;;;;;;;6277972;22;20000;-79
